Aviation Digital Data Service (ADDS)

Output produced by TAFs form (1642 UTC 18 April 2015)
found at http://www.aviationweather.gov/adds/tafs/
 
KAPA 181617Z 00000KT 10SM FEW008 BKN018 BKN035 05/02 A2994 RMK AO2 TCU DSNT W T00500017
KAPA 181147Z 1812/1912 VRB04KT P6SM SCT009 OVC015 
     FM181600 32008KT P6SM VCSH SCT025 BKN050 
     PROB30 1821/1903 -SHRA BKN025 
     FM190300 32008KT P6SM VCSH SCT012 OVC025 
     TEMPO 1903/1907 2SM -SHRASN BR BKN012